Time;durP1;ratioP1;P1;durP2;ratioP2;P2;SDS_P1;SDS_P2;PMS_P1;PMS_P2;Temp;Humidity;BMP_temperature;BMP_pressure;BME280_temperature;BME280_humidity;BME280_pressure;Samples;Min_cycle;Max_cycle;Signal;HPM_P1;HPM_P2
2021/09/18 00:00:18;;;;;;;;;16.00;15.75;;;;;;;;5007151;28;51712;-60
2021/09/18 00:02:43;;;;;;;;;17.75;16.75;;;;;;;;5011605;28;51916;-60
2021/09/18 00:05:09;;;;;;;;;16.75;16.75;;;;;;;;5007496;28;51144;-60
2021/09/18 00:07:34;;;;;;;;;17.00;16.25;;;;;;;;5013072;28;51130;-60
2021/09/18 00:09:59;;;;;;;;;14.50;13.75;;;;;;;;5010493;28;51373;-60
2021/09/18 00:12:24;;;;;;;;;15.75;15.75;;;;;;;;5010053;28;52071;-61
2021/09/18 00:14:49;;;;;;;;;14.50;13.25;;;;;;;;5011876;28;51155;-60
2021/09/18 00:17:15;;;;;;;;;17.00;16.75;;;;;;;;5011760;28;50913;-60
2021/09/18 00:19:40;;;;;;;;;15.00;14.50;;;;;;;;5012935;28;51264;-60
2021/09/18 00:22:05;;;;;;;;;16.00;15.00;;;;;;;;4987547;28;52029;-59
2021/09/18 00:24:30;;;;;;;;;18.00;16.75;;;;;;;;5017674;28;51079;-59
2021/09/18 00:26:56;;;;;;;;;16.75;16.75;;;;;;;;5010157;28;50964;-58
2021/09/18 00:29:21;;;;;;;;;15.00;14.25;;;;;;;;5012113;28;50992;-60
2021/09/18 00:31:46;;;;;;;;;15.75;15.50;;;;;;;;4992173;28;51902;-60
2021/09/18 00:34:11;;;;;;;;;19.75;18.50;;;;;;;;5009330;28;50968;-61
2021/09/18 00:36:36;;;;;;;;;25.25;23.75;;;;;;;;5010838;28;51133;-60
2021/09/18 00:39:02;;;;;;;;;17.75;16.75;;;;;;;;5011643;28;51272;-61
2021/09/18 00:41:27;;;;;;;;;23.00;22.00;;;;;;;;5011356;28;52101;-60
2021/09/18 00:43:53;;;;;;;;;20.00;19.50;;;;;;;;5011354;28;51070;-60
2021/09/18 00:46:19;;;;;;;;;20.25;19.00;;;;;;;;5012763;28;51079;-60
2021/09/18 00:48:45;;;;;;;;;18.00;18.00;;;;;;;;5011675;28;51020;-60
2021/09/18 00:51:10;;;;;;;;;21.00;20.00;;;;;;;;5012048;28;52021;-60
2021/09/18 00:53:35;;;;;;;;;20.25;19.25;;;;;;;;5008001;28;51123;-60
2021/09/18 00:56:00;;;;;;;;;21.75;21.75;;;;;;;;5012086;28;51064;-60
2021/09/18 00:58:26;;;;;;;;;20.75;19.75;;;;;;;;5009177;28;51160;-60
2021/09/18 01:00:51;;;;;;;;;22.00;19.50;;;;;;;;5010518;28;50973;-60
2021/09/18 01:03:16;;;;;;;;;20.50;20.25;;;;;;;;5008988;28;51261;-60
2021/09/18 01:05:41;;;;;;;;;21.00;19.00;;;;;;;;5010568;28;51076;-60
2021/09/18 01:08:06;;;;;;;;;23.75;21.50;;;;;;;;5015927;28;51090;-60
2021/09/18 01:10:32;;;;;;;;;18.00;16.25;;;;;;;;5015749;28;50979;-60
2021/09/18 01:12:58;;;;;;;;;20.00;20.00;;;;;;;;5014922;28;51052;-59
2021/09/18 01:15:23;;;;;;;;;15.75;15.75;;;;;;;;5014276;28;51046;-59
2021/09/18 01:17:48;;;;;;;;;19.25;19.00;;;;;;;;5015220;28;51422;-58
2021/09/18 01:20:14;;;;;;;;;20.25;19.50;;;;;;;;5013676;28;51084;-59
2021/09/18 01:22:39;;;;;;;;;17.25;17.00;;;;;;;;5001008;28;51058;-59
2021/09/18 01:25:05;;;;;;;;;17.75;16.00;;;;;;;;4998083;28;52807;-59
2021/09/18 01:27:30;;;;;;;;;16.25;15.75;;;;;;;;5014693;28;51227;-59
2021/09/18 01:29:55;;;;;;;;;14.00;13.75;;;;;;;;5015075;28;51900;-59
2021/09/18 01:32:21;;;;;;;;;16.25;16.25;;;;;;;;5015651;28;50960;-59
2021/09/18 01:34:48;;;;;;;;;18.00;18.00;;;;;;;;5012778;28;51118;-59
2021/09/18 01:37:13;;;;;;;;;20.00;19.00;;;;;;;;5014578;28;51409;-59
2021/09/18 01:39:38;;;;;;;;;25.25;22.00;;;;;;;;5013932;28;51838;-58
2021/09/18 01:42:04;;;;;;;;;22.75;22.75;;;;;;;;5014294;28;50997;-59
2021/09/18 01:44:29;;;;;;;;;20.00;19.50;;;;;;;;5013680;28;50975;-59
2021/09/18 01:46:54;;;;;;;;;18.25;17.25;;;;;;;;5015495;28;51142;-59
2021/09/18 01:49:20;;;;;;;;;15.25;15.25;;;;;;;;5014598;28;51828;-59
2021/09/18 01:51:56;;;;;;;;;16.25;16.25;;;;;;;;5012347;28;51004;-59
2021/09/18 01:54:21;;;;;;;;;14.00;14.00;;;;;;;;5014379;28;51395;-59
2021/09/18 01:56:47;;;;;;;;;13.00;13.00;;;;;;;;5014990;28;50985;-59
2021/09/18 01:59:12;;;;;;;;;15.00;15.00;;;;;;;;5012426;28;52061;-59
2021/09/18 02:01:37;;;;;;;;;14.50;14.50;;;;;;;;5015016;28;50939;-59
2021/09/18 02:04:03;;;;;;;;;17.00;15.25;;;;;;;;4996209;28;50905;-59
2021/09/18 02:06:28;;;;;;;;;14.00;14.00;;;;;;;;4997359;28;51302;-59
2021/09/18 02:08:53;;;;;;;;;12.67;12.67;;;;;;;;5013751;28;51719;-59
2021/09/18 02:11:18;;;;;;;;;15.33;15.33;;;;;;;;5013460;28;51026;-59
2021/09/18 02:13:44;;;;;;;;;13.33;13.33;;;;;;;;5012256;28;50897;-59
2021/09/18 02:16:09;;;;;;;;;15.67;14.67;;;;;;;;5009559;28;50838;-59
2021/09/18 02:18:34;;;;;;;;;17.33;16.33;;;;;;;;5012777;28;51736;-59
2021/09/18 02:20:59;;;;;;;;;16.33;15.33;;;;;;;;5013769;28;51281;-59
2021/09/18 02:23:25;;;;;;;;;14.33;14.33;;;;;;;;5008530;28;50909;-59
2021/09/18 02:25:50;;;;;;;;;15.33;15.00;;;;;;;;5012772;28;50959;-59
2021/09/18 02:28:15;;;;;;;;;14.33;13.00;;;;;;;;5014312;28;51776;-59
2021/09/18 02:30:40;;;;;;;;;13.00;12.67;;;;;;;;5011591;28;50943;-59
2021/09/18 02:33:06;;;;;;;;;15.00;15.00;;;;;;;;5010567;28;51351;-58
2021/09/18 02:35:31;;;;;;;;;15.33;14.33;;;;;;;;5014119;28;51416;-58
2021/09/18 02:37:58;;;;;;;;;15.75;14.75;;;;;;;;5014323;28;52546;-58
2021/09/18 02:40:24;;;;;;;;;14.00;14.00;;;;;;;;5014126;28;51226;-58
2021/09/18 02:42:50;;;;;;;;;15.50;14.75;;;;;;;;5014629;28;51111;-59
2021/09/18 02:45:17;;;;;;;;;13.00;13.00;;;;;;;;5014510;28;51305;-58
2021/09/18 02:47:42;;;;;;;;;12.00;11.67;;;;;;;;5013532;28;51182;-59
2021/09/18 02:50:09;;;;;;;;;14.00;14.00;;;;;;;;5014204;28;51202;-58
2021/09/18 02:52:34;;;;;;;;;12.75;12.75;;;;;;;;5014447;28;51029;-59
2021/09/18 02:54:59;;;;;;;;;12.75;12.75;;;;;;;;5015390;28;51970;-60
2021/09/18 02:57:25;;;;;;;;;13.25;13.25;;;;;;;;5010859;28;51292;-59
2021/09/18 02:59:50;;;;;;;;;14.75;14.50;;;;;;;;5013894;28;50926;-58
2021/09/18 03:02:15;;;;;;;;;15.25;15.00;;;;;;;;5014515;28;51003;-58
2021/09/18 03:04:40;;;;;;;;;14.50;14.25;;;;;;;;5013765;28;51365;-58
2021/09/18 03:07:06;;;;;;;;;12.00;11.75;;;;;;;;5014188;28;51964;-58
2021/09/18 03:09:31;;;;;;;;;14.00;14.00;;;;;;;;5013779;28;50991;-59
2021/09/18 03:11:56;;;;;;;;;13.50;13.50;;;;;;;;5014577;28;50960;-58
2021/09/18 03:14:21;;;;;;;;;13.75;13.75;;;;;;;;5013551;28;50865;-58
2021/09/18 03:16:47;;;;;;;;;14.75;13.25;;;;;;;;5013677;28;51708;-58
2021/09/18 03:19:12;;;;;;;;;14.00;14.00;;;;;;;;5014211;28;51020;-58
2021/09/18 03:21:37;;;;;;;;;13.25;13.00;;;;;;;;5005897;28;51428;-59
2021/09/18 03:24:03;;;;;;;;;13.25;12.00;;;;;;;;5014497;28;50930;-59
2021/09/18 03:26:28;;;;;;;;;15.00;15.00;;;;;;;;5013834;28;52713;-58
2021/09/18 03:28:53;;;;;;;;;14.00;13.50;;;;;;;;5013164;28;51016;-58
2021/09/18 03:31:19;;;;;;;;;13.00;13.00;;;;;;;;5014114;28;50974;-58
2021/09/18 03:33:44;;;;;;;;;15.00;14.25;;;;;;;;5014339;28;51095;-58
2021/09/18 03:36:10;;;;;;;;;13.00;12.25;;;;;;;;5013772;28;51817;-60
2021/09/18 03:38:35;;;;;;;;;15.00;14.00;;;;;;;;5013928;28;52039;-59
2021/09/18 03:41:00;;;;;;;;;16.25;15.75;;;;;;;;5014035;28;51052;-58
2021/09/18 03:43:26;;;;;;;;;21.25;20.25;;;;;;;;5013805;28;51197;-58
2021/09/18 03:45:52;;;;;;;;;13.00;12.25;;;;;;;;5013473;28;51023;-58
2021/09/18 03:48:17;;;;;;;;;17.75;16.00;;;;;;;;5012772;28;51215;-59
2021/09/18 03:50:42;;;;;;;;;21.00;19.25;;;;;;;;5012482;28;50826;-58
2021/09/18 03:53:07;;;;;;;;;19.50;18.50;;;;;;;;5013993;28;50893;-58
2021/09/18 03:55:33;;;;;;;;;20.75;19.75;;;;;;;;5013313;28;52638;-58
2021/09/18 03:57:58;;;;;;;;;18.00;17.75;;;;;;;;5013739;28;51015;-58
2021/09/18 04:00:23;;;;;;;;;18.00;17.00;;;;;;;;5013353;28;51048;-58
2021/09/18 04:02:48;;;;;;;;;17.50;17.25;;;;;;;;5014034;28;50842;-59
2021/09/18 04:05:14;;;;;;;;;11.00;10.25;;;;;;;;5013404;28;50989;-58
2021/09/18 04:07:39;;;;;;;;;14.00;13.50;;;;;;;;5013581;28;51149;-59
2021/09/18 04:10:04;;;;;;;;;16.75;16.75;;;;;;;;5013588;28;51057;-59
2021/09/18 04:12:30;;;;;;;;;20.25;19.00;;;;;;;;5013654;28;51191;-59
2021/09/18 04:14:55;;;;;;;;;16.00;15.25;;;;;;;;5012617;28;51018;-58
2021/09/18 04:17:20;;;;;;;;;16.00;15.50;;;;;;;;5013396;28;51111;-59
2021/09/18 04:19:45;;;;;;;;;15.50;15.00;;;;;;;;5012252;28;50786;-58
2021/09/18 04:22:10;;;;;;;;;13.50;13.50;;;;;;;;5013490;28;50881;-58
2021/09/18 04:24:36;;;;;;;;;9.00;9.00;;;;;;;;5013265;28;51517;-57
2021/09/18 04:27:02;;;;;;;;;14.00;14.00;;;;;;;;5013160;28;51059;-57
2021/09/18 04:29:27;;;;;;;;;14.00;14.00;;;;;;;;5013235;28;51091;-57
2021/09/18 04:31:52;;;;;;;;;13.25;13.25;;;;;;;;5013261;28;50890;-57
2021/09/18 04:34:17;;;;;;;;;13.25;13.00;;;;;;;;5013169;28;51934;-57
2021/09/18 04:36:42;;;;;;;;;12.25;11.50;;;;;;;;5013203;28;51075;-57
2021/09/18 04:39:08;;;;;;;;;11.75;11.75;;;;;;;;5012947;28;50972;-56
2021/09/18 04:41:33;;;;;;;;;14.75;14.75;;;;;;;;5012380;28;50979;-57
2021/09/18 04:43:58;;;;;;;;;10.75;10.75;;;;;;;;5012459;28;51810;-56
2021/09/18 04:46:25;;;;;;;;;13.50;13.00;;;;;;;;5012972;28;50954;-56
2021/09/18 04:48:51;;;;;;;;;12.00;12.00;;;;;;;;5012233;28;50907;-56
2021/09/18 04:51:16;;;;;;;;;11.25;11.25;;;;;;;;5013135;28;50912;-57
2021/09/18 04:53:41;;;;;;;;;13.75;12.50;;;;;;;;5012874;28;52064;-56
2021/09/18 04:56:06;;;;;;;;;13.25;13.00;;;;;;;;5012825;28;51349;-59
2021/09/18 04:58:31;;;;;;;;;11.25;11.25;;;;;;;;5012825;28;50942;-56
2021/09/18 05:00:57;;;;;;;;;9.50;9.50;;;;;;;;5013010;28;51056;-57
2021/09/18 05:03:22;;;;;;;;;9.50;9.25;;;;;;;;5012383;28;51926;-56
2021/09/18 05:05:48;;;;;;;;;10.00;10.00;;;;;;;;5012741;28;50898;-58
2021/09/18 05:08:13;;;;;;;;;11.50;11.50;;;;;;;;5012939;28;51053;-58
2021/09/18 05:10:38;;;;;;;;;11.25;11.25;;;;;;;;5012708;28;51249;-58
2021/09/18 05:13:03;;;;;;;;;13.75;13.50;;;;;;;;5012307;28;51200;-58
2021/09/18 05:15:29;;;;;;;;;11.75;11.75;;;;;;;;5012051;28;50833;-57
2021/09/18 05:17:54;;;;;;;;;10.00;10.00;;;;;;;;5011782;28;52738;-59
2021/09/18 05:20:20;;;;;;;;;12.25;12.00;;;;;;;;5012604;28;51372;-58
2021/09/18 05:22:45;;;;;;;;;11.25;9.75;;;;;;;;5012356;28;52718;-57
2021/09/18 05:25:10;;;;;;;;;12.67;12.33;;;;;;;;5012560;28;50901;-57
2021/09/18 05:27:35;;;;;;;;;13.50;12.75;;;;;;;;5012599;28;50974;-56
2021/09/18 05:30:01;;;;;;;;;9.00;9.00;;;;;;;;5012340;28;51349;-58
2021/09/18 05:32:26;;;;;;;;;13.00;12.75;;;;;;;;4994519;28;54262;-57
2021/09/18 05:34:51;;;;;;;;;12.00;11.75;;;;;;;;4994598;28;50922;-58
2021/09/18 05:37:17;;;;;;;;;12.33;11.33;;;;;;;;4994637;28;50898;-58
2021/09/18 05:39:42;;;;;;;;;11.67;10.00;;;;;;;;5012171;28;51005;-57
2021/09/18 05:42:08;;;;;;;;;9.00;9.00;;;;;;;;5012211;28;52549;-56
2021/09/18 05:44:34;;;;;;;;;13.00;13.00;;;;;;;;4994137;28;51176;-56
2021/09/18 05:46:59;;;;;;;;;15.75;14.50;;;;;;;;5012341;28;51469;-57
2021/09/18 05:49:24;;;;;;;;;11.00;11.00;;;;;;;;5011507;28;51364;-57
2021/09/18 05:51:49;;;;;;;;;12.00;12.00;;;;;;;;5013446;28;51749;-57
2021/09/18 05:54:14;;;;;;;;;11.50;11.00;;;;;;;;5013454;28;51145;-58
2021/09/18 05:56:40;;;;;;;;;11.00;10.00;;;;;;;;5015482;28;50975;-58
2021/09/18 05:59:05;;;;;;;;;10.00;10.00;;;;;;;;4997734;28;51007;-58
2021/09/18 06:01:30;;;;;;;;;12.00;11.00;;;;;;;;5015185;28;51174;-58
2021/09/18 06:03:55;;;;;;;;;11.75;11.50;;;;;;;;4997552;28;51075;-57
2021/09/18 06:06:21;;;;;;;;;10.33;9.67;;;;;;;;5015347;28;50944;-58
2021/09/18 06:08:46;;;;;;;;;11.00;11.00;;;;;;;;5015795;28;50925;-58
2021/09/18 06:11:11;;;;;;;;;11.00;11.00;;;;;;;;5015066;28;51273;-58
2021/09/18 06:13:36;;;;;;;;;13.25;13.25;;;;;;;;5014943;28;51071;-56
2021/09/18 06:16:02;;;;;;;;;11.50;11.00;;;;;;;;5015012;28;50999;-58
2021/09/18 06:18:27;;;;;;;;;14.75;14.75;;;;;;;;5012845;28;51063;-57
2021/09/18 06:20:52;;;;;;;;;13.50;12.25;;;;;;;;4997134;28;52634;-58
2021/09/18 06:23:17;;;;;;;;;13.25;13.25;;;;;;;;5014859;28;51160;-58
2021/09/18 06:25:43;;;;;;;;;11.00;11.00;;;;;;;;5015170;28;51225;-58
2021/09/18 06:28:08;;;;;;;;;13.00;12.00;;;;;;;;5014820;28;51255;-59
2021/09/18 06:30:33;;;;;;;;;12.00;12.00;;;;;;;;5014987;28;51967;-58
2021/09/18 06:32:59;;;;;;;;;11.00;10.00;;;;;;;;5014967;28;50937;-58
2021/09/18 06:35:24;;;;;;;;;8.67;8.67;;;;;;;;5014980;28;51087;-59
2021/09/18 06:37:49;;;;;;;;;10.00;10.00;;;;;;;;5014532;28;51332;-58
2021/09/18 06:40:18;;;;;;;;;11.67;11.00;;;;;;;;5014471;28;50912;-58
2021/09/18 06:42:43;;;;;;;;;12.75;11.75;;;;;;;;5014392;28;51090;-57
2021/09/18 06:45:09;;;;;;;;;11.00;11.00;;;;;;;;5014479;28;50974;-57
2021/09/18 06:47:34;;;;;;;;;10.50;10.50;;;;;;;;4995857;28;50978;-57
2021/09/18 06:50:00;;;;;;;;;13.00;12.00;;;;;;;;5014557;28;50973;-58
2021/09/18 06:52:25;;;;;;;;;12.33;11.33;;;;;;;;5014172;28;50909;-58
2021/09/18 06:54:50;;;;;;;;;13.75;12.00;;;;;;;;5014547;28;51043;-58
2021/09/18 06:57:15;;;;;;;;;12.33;12.33;;;;;;;;5014417;28;50976;-57
2021/09/18 06:59:41;;;;;;;;;14.50;14.00;;;;;;;;5013005;28;51855;-57
2021/09/18 07:02:08;;;;;;;;;13.00;12.67;;;;;;;;5014362;28;50978;-57
2021/09/18 07:04:34;;;;;;;;;12.67;12.67;;;;;;;;5013275;28;50951;-56
2021/09/18 07:06:59;;;;;;;;;14.25;12.75;;;;;;;;5014332;28;51356;-58
2021/09/18 07:09:24;;;;;;;;;15.00;15.00;;;;;;;;5014203;28;51800;-57
2021/09/18 07:11:49;;;;;;;;;11.00;11.00;;;;;;;;5014475;28;50967;-58
2021/09/18 07:14:14;;;;;;;;;12.00;12.00;;;;;;;;5013999;28;51072;-57
2021/09/18 07:16:40;;;;;;;;;12.67;12.00;;;;;;;;5013994;28;50880;-57
2021/09/18 07:19:05;;;;;;;;;14.67;14.00;;;;;;;;5013471;28;51165;-58
2021/09/18 07:21:30;;;;;;;;;12.67;12.00;;;;;;;;5013447;28;51051;-58
2021/09/18 07:23:55;;;;;;;;;11.67;11.67;;;;;;;;5013890;28;50960;-57
2021/09/18 07:26:20;;;;;;;;;11.67;11.33;;;;;;;;5014161;28;51237;-57
2021/09/18 07:28:46;;;;;;;;;13.50;13.50;;;;;;;;5013271;28;50886;-57
2021/09/18 07:31:11;;;;;;;;;11.33;11.33;;;;;;;;5013944;28;51025;-57
2021/09/18 07:33:36;;;;;;;;;12.00;11.33;;;;;;;;5013735;28;50805;-58
2021/09/18 07:36:02;;;;;;;;;11.67;11.00;;;;;;;;5014173;28;51039;-57
2021/09/18 07:38:27;;;;;;;;;15.00;14.50;;;;;;;;5013187;28;51156;-57
2021/09/18 07:40:55;;;;;;;;;13.00;11.00;;;;;;;;5013415;28;50986;-58
2021/09/18 07:43:20;;;;;;;;;13.00;12.67;;;;;;;;5013392;28;51009;-58
2021/09/18 07:45:45;;;;;;;;;11.67;11.00;;;;;;;;5013998;28;51003;-58
2021/09/18 07:48:10;;;;;;;;;11.33;11.33;;;;;;;;5012145;28;50975;-58
2021/09/18 07:50:36;;;;;;;;;10.67;10.67;;;;;;;;5013533;28;50930;-58
2021/09/18 07:53:01;;;;;;;;;13.00;10.33;;;;;;;;5013685;28;51054;-59
2021/09/18 07:55:27;;;;;;;;;15.00;13.67;;;;;;;;5013448;28;51413;-58
2021/09/18 07:57:52;;;;;;;;;14.00;13.33;;;;;;;;5013427;28;51962;-58
2021/09/18 08:00:18;;;;;;;;;12.00;11.00;;;;;;;;5012632;28;51074;-57
2021/09/18 08:02:43;;;;;;;;;11.67;11.67;;;;;;;;5013469;28;50827;-58
2021/09/18 08:05:09;;;;;;;;;13.00;12.00;;;;;;;;5013425;28;51191;-58
2021/09/18 08:07:34;;;;;;;;;14.00;13.00;;;;;;;;5012866;28;52627;-58
2021/09/18 08:10:00;;;;;;;;;11.33;11.33;;;;;;;;5013021;28;50854;-58
2021/09/18 08:12:26;;;;;;;;;11.67;11.00;;;;;;;;5013273;28;51359;-58
2021/09/18 08:14:52;;;;;;;;;12.67;12.00;;;;;;;;5012229;28;51286;-58
2021/09/18 08:17:17;;;;;;;;;12.67;12.67;;;;;;;;5011903;28;52928;-58
2021/09/18 08:19:43;;;;;;;;;9.67;9.67;;;;;;;;5012502;28;51140;-58
2021/09/18 08:22:09;;;;;;;;;12.00;12.00;;;;;;;;5013064;28;50944;-58
2021/09/18 08:24:41;;;;;;;;;10.33;10.00;;;;;;;;5013159;28;50949;-59
2021/09/18 08:27:10;;;;;;;;;11.00;11.00;;;;;;;;5012800;28;51795;-59
2021/09/18 08:29:36;;;;;;;;;11.00;11.00;;;;;;;;5012180;28;51108;-58
2021/09/18 08:32:01;;;;;;;;;13.00;12.00;;;;;;;;5012771;28;51118;-59
2021/09/18 08:34:26;;;;;;;;;10.00;10.00;;;;;;;;5013057;28;51336;-58
2021/09/18 08:36:51;;;;;;;;;12.33;12.33;;;;;;;;5012000;28;51843;-58
2021/09/18 08:39:17;;;;;;;;;10.33;10.33;;;;;;;;5012343;28;51138;-57
2021/09/18 08:41:47;;;;;;;;;13.00;12.00;;;;;;;;5011740;28;51020;-58
2021/09/18 08:44:12;;;;;;;;;11.00;11.00;;;;;;;;5012158;28;50935;-58
2021/09/18 08:46:38;;;;;;;;;11.67;11.00;;;;;;;;5011990;28;51891;-59
2021/09/18 08:49:05;;;;;;;;;9.33;9.00;;;;;;;;5010894;28;51186;-58
2021/09/18 08:51:30;;;;;;;;;12.33;12.33;;;;;;;;5012575;28;51002;-58
2021/09/18 08:53:56;;;;;;;;;9.33;9.33;;;;;;;;5012492;28;50982;-58
2021/09/18 08:56:21;;;;;;;;;9.33;9.33;;;;;;;;5012245;28;51122;-58
2021/09/18 08:58:47;;;;;;;;;11.00;11.00;;;;;;;;4993999;28;51071;-61
2021/09/18 09:01:13;;;;;;;;;10.33;10.00;;;;;;;;5012021;28;51001;-60
2021/09/18 09:03:38;;;;;;;;;10.33;10.33;;;;;;;;5009390;28;51346;-60
2021/09/18 09:06:03;;;;;;;;;10.67;10.33;;;;;;;;5011971;28;51071;-59
2021/09/18 09:08:28;;;;;;;;;11.00;10.33;;;;;;;;5011544;28;50963;-58
2021/09/18 09:10:54;;;;;;;;;11.33;10.67;;;;;;;;5012100;28;50842;-59
2021/09/18 09:13:20;;;;;;;;;10.00;9.00;;;;;;;;5011432;28;50955;-57
2021/09/18 09:15:47;;;;;;;;;12.00;11.33;;;;;;;;5011180;28;53719;-58
2021/09/18 09:18:16;;;;;;;;;9.00;9.00;;;;;;;;5011059;28;51126;-59
2021/09/18 09:20:41;;;;;;;;;10.00;10.00;;;;;;;;5010859;28;51151;-59
2021/09/18 09:23:33;;;;;;;;;9.00;8.00;;;;;;;;5010867;28;50850;-62
2021/09/18 09:25:59;;;;;;;;;14.00;13.00;;;;;;;;5008990;28;51255;-59
2021/09/18 09:28:32;;;;;;;;;8.00;8.00;;;;;;;;5014552;28;51116;-58
2021/09/18 09:31:16;;;;;;;;;17.67;17.67;;;;;;;;5015298;28;52074;-58
2021/09/18 09:34:00;;;;;;;;;9.33;8.67;;;;;;;;5013906;28;51344;-58
2021/09/18 09:36:26;;;;;;;;;10.33;9.33;;;;;;;;5014708;28;51639;-59
2021/09/18 09:38:52;;;;;;;;;8.67;8.33;;;;;;;;5013318;28;51184;-60
2021/09/18 09:41:33;;;;;;;;;10.00;10.00;;;;;;;;5014262;28;50989;-59
2021/09/18 09:43:59;;;;;;;;;11.00;11.00;;;;;;;;5014758;28;51189;-59
2021/09/18 09:46:24;;;;;;;;;8.00;8.00;;;;;;;;5014642;28;50988;-60
2021/09/18 09:49:01;;;;;;;;;8.67;8.67;;;;;;;;5013326;28;51167;-59
2021/09/18 09:51:26;;;;;;;;;9.33;9.33;;;;;;;;4997113;28;51063;-58
2021/09/18 09:53:52;;;;;;;;;9.00;9.00;;;;;;;;4996859;28;51435;-59
2021/09/18 09:56:21;;;;;;;;;9.00;9.00;;;;;;;;5014463;28;51758;-58
2021/09/18 09:58:53;;;;;;;;;8.00;8.00;;;;;;;;5014104;28;51309;-59
2021/09/18 10:01:18;;;;;;;;;9.00;9.00;;;;;;;;5014489;28;51062;-58
2021/09/18 10:03:44;;;;;;;;;10.33;9.67;;;;;;;;5014681;28;51218;-59
2021/09/18 10:06:10;;;;;;;;;13.67;13.00;;;;;;;;5014366;28;51052;-58
2021/09/18 10:08:37;;;;;;;;;11.33;10.67;;;;;;;;5012471;28;51184;-58
2021/09/18 10:11:04;;;;;;;;;9.00;9.00;;;;;;;;4996512;28;51190;-60
2021/09/18 10:13:30;;;;;;;;;11.00;11.00;;;;;;;;5014099;28;51230;-58
2021/09/18 10:15:55;;;;;;;;;8.67;8.00;;;;;;;;5013828;28;50988;-57
2021/09/18 10:18:22;;;;;;;;;8.00;8.00;;;;;;;;5013618;28;50940;-59
2021/09/18 10:23:18;;;;;;;;;5.00;4.33;;;;;;;;5014179;28;50942;-58
2021/09/18 10:25:47;;;;;;;;;9.33;8.33;;;;;;;;5013582;28;51865;-58
2021/09/18 10:28:12;;;;;;;;;11.75;11.50;;;;;;;;5013194;28;51013;-58
2021/09/18 10:30:40;;;;;;;;;9.67;8.33;;;;;;;;5013966;28;50871;-58
2021/09/18 10:33:06;;;;;;;;;5.67;5.33;;;;;;;;5013790;28;51317;-59
2021/09/18 10:35:32;;;;;;;;;6.00;6.00;;;;;;;;5013446;28;51802;-58
2021/09/18 10:38:17;;;;;;;;;6.33;6.33;;;;;;;;5010994;28;51008;-59
2021/09/18 10:40:54;;;;;;;;;9.00;9.00;;;;;;;;5002573;28;51212;-59
2021/09/18 10:43:24;;;;;;;;;7.00;6.00;;;;;;;;5011351;28;51097;-58
2021/09/18 10:45:49;;;;;;;;;6.33;6.00;;;;;;;;5013487;28;51090;-58
2021/09/18 10:48:33;;;;;;;;;8.00;8.00;;;;;;;;5013079;28;51103;-58
2021/09/18 10:50:59;;;;;;;;;7.33;7.00;;;;;;;;5013105;28;51194;-58
2021/09/18 10:53:24;;;;;;;;;6.67;6.67;;;;;;;;5013565;28;51053;-58
2021/09/18 10:55:51;;;;;;;;;9.33;9.00;;;;;;;;5013213;28;51302;-58
2021/09/18 10:58:16;;;;;;;;;8.00;8.00;;;;;;;;5012826;28;50976;-58
2021/09/18 11:00:44;;;;;;;;;7.00;7.00;;;;;;;;5013199;28;51020;-58
2021/09/18 11:03:09;;;;;;;;;4.00;4.00;;;;;;;;5013225;28;51231;-59
2021/09/18 11:05:37;;;;;;;;;6.33;6.00;;;;;;;;5012861;28;51046;-59
2021/09/18 11:08:04;;;;;;;;;5.00;5.00;;;;;;;;5013092;28;51090;-59
2021/09/18 11:10:29;;;;;;;;;10.00;9.33;;;;;;;;5013061;28;50990;-58
2021/09/18 11:13:06;;;;;;;;;7.00;7.00;;;;;;;;5011518;28;51371;-59
2021/09/18 11:15:39;;;;;;;;;5.00;5.00;;;;;;;;5012453;28;52103;-58
2021/09/18 11:18:13;;;;;;;;;6.00;5.33;;;;;;;;5012820;28;51012;-59
2021/09/18 11:20:39;;;;;;;;;6.33;6.33;;;;;;;;5012699;28;51087;-59
2021/09/18 11:23:04;;;;;;;;;6.33;6.33;;;;;;;;5013393;28;51080;-62
2021/09/18 11:25:30;;;;;;;;;7.67;7.67;;;;;;;;5012525;28;51533;-59
2021/09/18 11:28:12;;;;;;;;;5.00;5.00;;;;;;;;5012084;28;51012;-58
2021/09/18 11:30:45;;;;;;;;;6.00;5.67;;;;;;;;5012169;28;51052;-58
2021/09/18 11:33:11;;;;;;;;;6.00;6.00;;;;;;;;5012869;28;50871;-58
2021/09/18 11:35:38;;;;;;;;;5.67;5.67;;;;;;;;5011602;28;51968;-59
2021/09/18 11:38:05;;;;;;;;;5.33;5.33;;;;;;;;5011366;28;51269;-58
2021/09/18 11:40:31;;;;;;;;;6.00;6.00;;;;;;;;5011217;28;51019;-59
2021/09/18 11:42:57;;;;;;;;;6.33;6.00;;;;;;;;5012095;28;51285;-59
2021/09/18 11:45:23;;;;;;;;;6.00;6.00;;;;;;;;5011100;28;52587;-59
2021/09/18 11:47:50;;;;;;;;;6.33;5.00;;;;;;;;5012532;28;50976;-58
2021/09/18 11:50:35;;;;;;;;;6.00;6.00;;;;;;;;5011654;28;50971;-58
2021/09/18 11:53:02;;;;;;;;;7.67;6.67;;;;;;;;5011965;28;50834;-58
2021/09/18 11:55:27;;;;;;;;;7.00;7.00;;;;;;;;5010789;28;51726;-59
2021/09/18 11:58:03;;;;;;;;;4.00;4.00;;;;;;;;5011653;28;50976;-59
2021/09/18 12:00:28;;;;;;;;;6.00;6.00;;;;;;;;5011994;28;51052;-58
2021/09/18 12:02:57;;;;;;;;;2.00;2.00;;;;;;;;5012641;28;51090;-59
2021/09/18 12:05:23;;;;;;;;;5.00;5.00;;;;;;;;5012116;28;51049;-58
2021/09/18 12:07:48;;;;;;;;;6.00;6.00;;;;;;;;4993939;28;50871;-58
2021/09/18 12:10:15;;;;;;;;;5.00;5.00;;;;;;;;5011708;28;51239;-58
2021/09/18 12:12:40;;;;;;;;;6.00;6.00;;;;;;;;5012023;28;50828;-59
2021/09/18 12:15:06;;;;;;;;;6.00;6.00;;;;;;;;4991892;28;51770;-58
2021/09/18 12:17:36;;;;;;;;;5.50;5.50;;;;;;;;4997729;28;51020;-58
2021/09/18 12:20:02;;;;;;;;;7.00;7.00;;;;;;;;5011496;28;50990;-59
2021/09/18 12:22:27;;;;;;;;;8.00;7.00;;;;;;;;5012264;28;50977;-58
2021/09/18 12:24:53;;;;;;;;;7.00;7.00;;;;;;;;5011589;28;51842;-58
2021/09/18 12:27:25;;;;;;;;;5.67;5.67;;;;;;;;5010530;28;51063;-59
2021/09/18 12:30:05;;;;;;;;;8.00;8.00;;;;;;;;5011246;28;51063;-59
2021/09/18 12:32:30;;;;;;;;;9.33;9.33;;;;;;;;5012067;28;50868;-59
2021/09/18 12:34:56;;;;;;;;;10.00;9.33;;;;;;;;4993127;28;52737;-56
2021/09/18 12:37:25;;;;;;;;;7.00;6.33;;;;;;;;5009250;28;50825;-58
2021/09/18 12:39:51;;;;;;;;;7.67;7.67;;;;;;;;5011143;28;51066;-59
2021/09/18 12:42:17;;;;;;;;;9.33;9.33;;;;;;;;5011419;28;51059;-58
2021/09/18 12:44:42;;;;;;;;;7.67;6.67;;;;;;;;5009884;28;51110;-59
2021/09/18 12:47:19;;;;;;;;;7.33;7.00;;;;;;;;5011768;28;51037;-60
2021/09/18 12:49:45;;;;;;;;;8.00;8.00;;;;;;;;5011789;28;50936;-60
2021/09/18 12:52:10;;;;;;;;;7.00;7.00;;;;;;;;4993748;28;51230;-59
2021/09/18 12:54:42;;;;;;;;;6.00;6.00;;;;;;;;5011263;28;52713;-59
2021/09/18 12:57:07;;;;;;;;;11.67;11.00;;;;;;;;5011641;28;51172;-60
2021/09/18 12:59:39;;;;;;;;;8.00;7.67;;;;;;;;5011261;28;51047;-59
2021/09/18 13:02:05;;;;;;;;;11.67;11.33;;;;;;;;5011828;28;51270;-59
2021/09/18 13:04:31;;;;;;;;;8.00;8.00;;;;;;;;5014491;28;52192;-59
2021/09/18 13:07:07;;;;;;;;;7.33;7.33;;;;;;;;5015026;28;51005;-60
2021/09/18 13:09:33;;;;;;;;;9.33;9.00;;;;;;;;5015101;28;50987;-60
2021/09/18 13:12:09;;;;;;;;;23.00;22.25;;;;;;;;5014645;28;50850;-60
2021/09/18 13:14:35;;;;;;;;;5.00;5.00;;;;;;;;5012497;28;50913;-59
2021/09/18 13:17:01;;;;;;;;;11.33;10.67;;;;;;;;4996151;28;51009;-60
2021/09/18 13:19:28;;;;;;;;;6.33;6.33;;;;;;;;5013762;28;51539;-59
2021/09/18 13:21:53;;;;;;;;;5.67;5.67;;;;;;;;5014537;28;51181;-59
2021/09/18 13:24:19;;;;;;;;;9.00;9.00;;;;;;;;5013153;28;52226;-59
2021/09/18 13:26:44;;;;;;;;;6.33;6.33;;;;;;;;5014144;28;51093;-58
2021/09/18 13:29:10;;;;;;;;;7.33;7.00;;;;;;;;5013454;28;51012;-59
2021/09/18 13:31:35;;;;;;;;;6.00;6.00;;;;;;;;5014195;28;50998;-59
2021/09/18 13:34:01;;;;;;;;;5.00;5.00;;;;;;;;5013979;28;51008;-60
2021/09/18 13:36:26;;;;;;;;;6.00;6.00;;;;;;;;5014501;28;51185;-60
2021/09/18 13:38:53;;;;;;;;;6.33;6.33;;;;;;;;5013362;28;51066;-59
2021/09/18 13:41:18;;;;;;;;;7.67;7.67;;;;;;;;5014140;28;51064;-60
2021/09/18 13:43:43;;;;;;;;;8.33;8.00;;;;;;;;5013592;28;51871;-60
2021/09/18 13:46:09;;;;;;;;;9.67;8.67;;;;;;;;4995320;28;51224;-59
2021/09/18 13:48:34;;;;;;;;;10.00;10.00;;;;;;;;4996187;28;50974;-57
2021/09/18 13:51:03;;;;;;;;;5.00;5.00;;;;;;;;5013361;28;51131;-59
2021/09/18 13:53:29;;;;;;;;;9.67;9.33;;;;;;;;5013585;28;52986;-61
2021/09/18 13:55:55;;;;;;;;;7.00;6.33;;;;;;;;5013162;28;51162;-58
2021/09/18 13:58:21;;;;;;;;;8.00;8.00;;;;;;;;5012678;28;51092;-58
2021/09/18 14:00:46;;;;;;;;;11.33;11.00;;;;;;;;5013163;28;51287;-58
2021/09/18 14:03:11;;;;;;;;;6.00;6.00;;;;;;;;5013185;28;51189;-58
2021/09/18 14:05:37;;;;;;;;;7.00;7.00;;;;;;;;5013167;28;51143;-59
2021/09/18 14:08:02;;;;;;;;;13.00;13.00;;;;;;;;5013877;28;51038;-59
2021/09/18 14:10:27;;;;;;;;;7.67;7.67;;;;;;;;5013111;28;51148;-60
2021/09/18 14:12:52;;;;;;;;;12.00;12.00;;;;;;;;5012266;28;51797;-59
2021/09/18 14:15:19;;;;;;;;;7.00;6.00;;;;;;;;5011433;28;51097;-60
2021/09/18 14:17:44;;;;;;;;;8.00;8.00;;;;;;;;4994660;28;51147;-58
2021/09/18 14:20:10;;;;;;;;;6.00;5.67;;;;;;;;5013210;28;50919;-59
2021/09/18 14:22:35;;;;;;;;;9.33;8.67;;;;;;;;5012706;28;51805;-59